sensor_id;sensor_type;location;lat;lon;timestamp;temperature;humidity
4487;DHT22;2256;48.740;9.106;2023-02-28T00:02:23;-2.30;96.20
4487;DHT22;2256;48.740;9.106;2023-02-28T00:04:53;-2.40;96.20
4487;DHT22;2256;48.740;9.106;2023-02-28T00:07:26;-2.30;96.30
4487;DHT22;2256;48.740;9.106;2023-02-28T00:09:53;-2.30;96.40
4487;DHT22;2256;48.740;9.106;2023-02-28T00:12:20;-2.50;96.60
4487;DHT22;2256;48.740;9.106;2023-02-28T00:14:47;-2.40;96.70
4487;DHT22;2256;48.740;9.106;2023-02-28T00:17:14;-2.50;97.00
4487;DHT22;2256;48.740;9.106;2023-02-28T00:19:41;-2.50;97.00
4487;DHT22;2256;48.740;9.106;2023-02-28T00:22:10;-2.50;97.10
4487;DHT22;2256;48.740;9.106;2023-02-28T00:24:38;-2.50;97.00
4487;DHT22;2256;48.740;9.106;2023-02-28T00:27:05;-2.50;97.00
4487;DHT22;2256;48.740;9.106;2023-02-28T00:29:31;-2.50;97.20
4487;DHT22;2256;48.740;9.106;2023-02-28T00:31:59;-2.50;97.10
4487;DHT22;2256;48.740;9.106;2023-02-28T00:34:26;-2.50;97.20
4487;DHT22;2256;48.740;9.106;2023-02-28T00:36:53;-2.50;97.40
4487;DHT22;2256;48.740;9.106;2023-02-28T00:39:22;-2.60;97.40
4487;DHT22;2256;48.740;9.106;2023-02-28T00:41:49;-2.70;97.50
4487;DHT22;2256;48.740;9.106;2023-02-28T00:44:16;-2.60;97.60
4487;DHT22;2256;48.740;9.106;2023-02-28T00:46:42;-2.60;97.40
4487;DHT22;2256;48.740;9.106;2023-02-28T00:49:09;-2.60;97.50
4487;DHT22;2256;48.740;9.106;2023-02-28T00:51:36;-2.60;97.70
4487;DHT22;2256;48.740;9.106;2023-02-28T00:54:03;-2.70;97.80
4487;DHT22;2256;48.740;9.106;2023-02-28T00:56:31;-2.70;97.90
4487;DHT22;2256;48.740;9.106;2023-02-28T00:58:58;-2.80;98.00
4487;DHT22;2256;48.740;9.106;2023-02-28T01:01:25;-2.90;98.20
4487;DHT22;2256;48.740;9.106;2023-02-28T01:03:51;-2.90;98.40
4487;DHT22;2256;48.740;9.106;2023-02-28T01:06:18;-2.80;98.40
4487;DHT22;2256;48.740;9.106;2023-02-28T01:08:47;-2.70;98.50
4487;DHT22;2256;48.740;9.106;2023-02-28T01:11:16;-2.80;98.60
4487;DHT22;2256;48.740;9.106;2023-02-28T01:13:45;-2.80;98.60
4487;DHT22;2256;48.740;9.106;2023-02-28T01:16:14;-2.80;98.70
4487;DHT22;2256;48.740;9.106;2023-02-28T01:18:41;-2.80;98.80
4487;DHT22;2256;48.740;9.106;2023-02-28T01:21:10;-2.90;99.20
4487;DHT22;2256;48.740;9.106;2023-02-28T01:23:41;-2.90;99.20
4487;DHT22;2256;48.740;9.106;2023-02-28T01:26:11;-2.90;99.20
4487;DHT22;2256;48.740;9.106;2023-02-28T01:28:38;-2.80;99.20
4487;DHT22;2256;48.740;9.106;2023-02-28T01:31:07;-2.90;99.40
4487;DHT22;2256;48.740;9.106;2023-02-28T01:33:34;-2.90;99.40
4487;DHT22;2256;48.740;9.106;2023-02-28T01:36:03;-2.80;99.60
4487;DHT22;2256;48.740;9.106;2023-02-28T01:38:30;-2.90;99.60
4487;DHT22;2256;48.740;9.106;2023-02-28T01:40:59;-3.00;99.90
4487;DHT22;2256;48.740;9.106;2023-02-28T01:43:29;-2.90;99.90
4487;DHT22;2256;48.740;9.106;2023-02-28T01:45:57;-3.00;99.90
4487;DHT22;2256;48.740;9.106;2023-02-28T01:48:28;-3.00;99.90
4487;DHT22;2256;48.740;9.106;2023-02-28T01:50:58;-3.00;99.90
4487;DHT22;2256;48.740;9.106;2023-02-28T01:53:31;-3.00;99.90
4487;DHT22;2256;48.740;9.106;2023-02-28T01:55:58;-2.90;99.90
4487;DHT22;2256;48.740;9.106;2023-02-28T01:58:25;-3.00;99.90
4487;DHT22;2256;48.740;9.106;2023-02-28T02:00:52;-3.00;99.90
4487;DHT22;2256;48.740;9.106;2023-02-28T02:03:20;-3.00;99.90
4487;DHT22;2256;48.740;9.106;2023-02-28T02:05:48;-3.00;99.90
4487;DHT22;2256;48.740;9.106;2023-02-28T02:08:17;-3.00;99.90
4487;DHT22;2256;48.740;9.106;2023-02-28T02:10:47;-3.00;99.90
4487;DHT22;2256;48.740;9.106;2023-02-28T02:13:29;-2.90;99.90
4487;DHT22;2256;48.740;9.106;2023-02-28T02:16:04;-3.00;99.90
4487;DHT22;2256;48.740;9.106;2023-02-28T02:18:39;-3.00;99.90
4487;DHT22;2256;48.740;9.106;2023-02-28T02:21:37;-2.90;99.90
4487;DHT22;2256;48.740;9.106;2023-02-28T02:27:25;-2.90;99.90
4487;DHT22;2256;48.740;9.106;2023-02-28T02:33:44;-2.90;99.90
4487;DHT22;2256;48.740;9.106;2023-02-28T02:36:22;-3.00;99.90
4487;DHT22;2256;48.740;9.106;2023-02-28T02:38:53;-3.10;99.90
4487;DHT22;2256;48.740;9.106;2023-02-28T02:41:28;-2.90;99.90
4487;DHT22;2256;48.740;9.106;2023-02-28T02:44:03;-3.00;99.90
4487;DHT22;2256;48.740;9.106;2023-02-28T02:46:39;-2.90;99.90
4487;DHT22;2256;48.740;9.106;2023-02-28T02:49:10;-2.90;99.90
4487;DHT22;2256;48.740;9.106;2023-02-28T02:51:41;-3.00;99.90
4487;DHT22;2256;48.740;9.106;2023-02-28T02:54:11;-2.90;99.90
4487;DHT22;2256;48.740;9.106;2023-02-28T02:56:42;-2.90;99.90
4487;DHT22;2256;48.740;9.106;2023-02-28T02:59:13;-2.90;99.90
4487;DHT22;2256;48.740;9.106;2023-02-28T03:01:51;-2.90;99.90
4487;DHT22;2256;48.740;9.106;2023-02-28T03:04:21;-2.90;99.90
4487;DHT22;2256;48.740;9.106;2023-02-28T03:06:53;-2.90;99.90
4487;DHT22;2256;48.740;9.106;2023-02-28T03:09:21;-2.90;99.90
4487;DHT22;2256;48.740;9.106;2023-02-28T03:11:49;-2.90;99.90
4487;DHT22;2256;48.740;9.106;2023-02-28T03:14:26;-2.90;99.90
4487;DHT22;2256;48.740;9.106;2023-02-28T03:17:16;-2.90;99.90
4487;DHT22;2256;48.740;9.106;2023-02-28T03:20:01;-2.80;99.90
4487;DHT22;2256;48.740;9.106;2023-02-28T03:22:45;-2.90;99.90
4487;DHT22;2256;48.740;9.106;2023-02-28T03:25:21;-2.90;99.90
4487;DHT22;2256;48.740;9.106;2023-02-28T03:28:03;-2.90;99.90
4487;DHT22;2256;48.740;9.106;2023-02-28T03:30:38;-2.80;99.90
4487;DHT22;2256;48.740;9.106;2023-02-28T03:33:10;-2.90;99.90
4487;DHT22;2256;48.740;9.106;2023-02-28T03:35:49;-2.80;99.90
4487;DHT22;2256;48.740;9.106;2023-02-28T03:38:27;-2.80;99.90
4487;DHT22;2256;48.740;9.106;2023-02-28T03:40:58;-2.80;99.90
4487;DHT22;2256;48.740;9.106;2023-02-28T03:43:31;-2.90;99.90
4487;DHT22;2256;48.740;9.106;2023-02-28T03:46:02;-2.90;99.90
4487;DHT22;2256;48.740;9.106;2023-02-28T03:48:35;-2.80;99.90
4487;DHT22;2256;48.740;9.106;2023-02-28T03:51:07;-2.80;99.90
4487;DHT22;2256;48.740;9.106;2023-02-28T03:53:40;-2.80;99.90
4487;DHT22;2256;48.740;9.106;2023-02-28T03:56:15;-2.80;99.90
4487;DHT22;2256;48.740;9.106;2023-02-28T03:58:47;-2.70;99.90
4487;DHT22;2256;48.740;9.106;2023-02-28T04:01:18;-2.70;99.90
4487;DHT22;2256;48.740;9.106;2023-02-28T04:03:47;-2.70;99.90
4487;DHT22;2256;48.740;9.106;2023-02-28T04:06:16;-2.70;99.90
4487;DHT22;2256;48.740;9.106;2023-02-28T04:08:45;-2.70;99.90
4487;DHT22;2256;48.740;9.106;2023-02-28T04:11:20;-2.70;99.90
4487;DHT22;2256;48.740;9.106;2023-02-28T04:13:47;-2.60;99.90
4487;DHT22;2256;48.740;9.106;2023-02-28T04:16:15;-2.60;99.90
4487;DHT22;2256;48.740;9.106;2023-02-28T04:18:42;-2.60;99.90
4487;DHT22;2256;48.740;9.106;2023-02-28T04:21:09;-2.60;99.90
4487;DHT22;2256;48.740;9.106;2023-02-28T04:23:36;-2.60;99.90
4487;DHT22;2256;48.740;9.106;2023-02-28T04:26:05;-2.60;99.90
4487;DHT22;2256;48.740;9.106;2023-02-28T04:28:32;-2.60;99.90
4487;DHT22;2256;48.740;9.106;2023-02-28T04:31:00;-2.60;99.90
4487;DHT22;2256;48.740;9.106;2023-02-28T04:33:28;-2.60;99.90
4487;DHT22;2256;48.740;9.106;2023-02-28T04:35:58;-2.70;99.90
4487;DHT22;2256;48.740;9.106;2023-02-28T04:38:26;-2.60;99.90
4487;DHT22;2256;48.740;9.106;2023-02-28T04:40:57;-2.60;99.90
4487;DHT22;2256;48.740;9.106;2023-02-28T04:43:27;-2.60;99.90
4487;DHT22;2256;48.740;9.106;2023-02-28T04:45:54;-2.60;99.90
4487;DHT22;2256;48.740;9.106;2023-02-28T04:48:22;-2.60;99.90
4487;DHT22;2256;48.740;9.106;2023-02-28T04:50:49;-2.60;99.90
4487;DHT22;2256;48.740;9.106;2023-02-28T04:53:16;-2.50;99.90
4487;DHT22;2256;48.740;9.106;2023-02-28T04:55:44;-2.50;99.90
4487;DHT22;2256;48.740;9.106;2023-02-28T04:58:11;-2.50;99.90
4487;DHT22;2256;48.740;9.106;2023-02-28T05:00:39;-2.60;99.90
4487;DHT22;2256;48.740;9.106;2023-02-28T05:03:06;-2.50;99.90
4487;DHT22;2256;48.740;9.106;2023-02-28T05:05:33;-2.50;99.90
4487;DHT22;2256;48.740;9.106;2023-02-28T05:08:01;-2.50;99.90
4487;DHT22;2256;48.740;9.106;2023-02-28T05:10:28;-2.50;99.90
4487;DHT22;2256;48.740;9.106;2023-02-28T05:12:55;-2.50;99.90
4487;DHT22;2256;48.740;9.106;2023-02-28T05:15:22;-2.50;99.90
4487;DHT22;2256;48.740;9.106;2023-02-28T05:17:50;-2.50;99.90
4487;DHT22;2256;48.740;9.106;2023-02-28T05:20:17;-2.50;99.90
4487;DHT22;2256;48.740;9.106;2023-02-28T05:22:44;-2.60;99.90
4487;DHT22;2256;48.740;9.106;2023-02-28T05:25:13;-2.50;99.90
4487;DHT22;2256;48.740;9.106;2023-02-28T05:27:42;-2.60;99.90
4487;DHT22;2256;48.740;9.106;2023-02-28T05:30:11;-2.60;99.90
4487;DHT22;2256;48.740;9.106;2023-02-28T05:32:39;-2.60;99.90
4487;DHT22;2256;48.740;9.106;2023-02-28T05:35:10;-2.60;99.90
4487;DHT22;2256;48.740;9.106;2023-02-28T05:37:37;-2.50;99.90
4487;DHT22;2256;48.740;9.106;2023-02-28T05:40:05;-2.60;99.90
4487;DHT22;2256;48.740;9.106;2023-02-28T05:42:37;-2.60;99.90
4487;DHT22;2256;48.740;9.106;2023-02-28T05:45:05;-2.60;99.90
4487;DHT22;2256;48.740;9.106;2023-02-28T05:47:33;-2.50;99.90
4487;DHT22;2256;48.740;9.106;2023-02-28T05:50:00;-2.50;99.90
4487;DHT22;2256;48.740;9.106;2023-02-28T05:52:29;-2.50;99.90
4487;DHT22;2256;48.740;9.106;2023-02-28T05:54:56;-2.60;99.90
4487;DHT22;2256;48.740;9.106;2023-02-28T05:57:27;-2.50;99.90
4487;DHT22;2256;48.740;9.106;2023-02-28T05:59:54;-2.50;99.90
4487;DHT22;2256;48.740;9.106;2023-02-28T06:02:22;-2.40;99.90
4487;DHT22;2256;48.740;9.106;2023-02-28T06:04:48;-2.40;99.90
4487;DHT22;2256;48.740;9.106;2023-02-28T06:07:16;-2.40;99.90
4487;DHT22;2256;48.740;9.106;2023-02-28T06:09:46;-2.50;99.90
4487;DHT22;2256;48.740;9.106;2023-02-28T06:12:13;-2.60;99.90
4487;DHT22;2256;48.740;9.106;2023-02-28T06:14:40;-2.60;99.90
4487;DHT22;2256;48.740;9.106;2023-02-28T06:17:08;-2.50;99.90
4487;DHT22;2256;48.740;9.106;2023-02-28T06:19:37;-2.50;99.90
4487;DHT22;2256;48.740;9.106;2023-02-28T06:22:05;-2.40;99.90
4487;DHT22;2256;48.740;9.106;2023-02-28T06:24:33;-2.40;99.90
4487;DHT22;2256;48.740;9.106;2023-02-28T06:27:01;-2.40;99.90
4487;DHT22;2256;48.740;9.106;2023-02-28T06:29:30;-2.50;99.90
4487;DHT22;2256;48.740;9.106;2023-02-28T06:31:58;-2.50;99.90
4487;DHT22;2256;48.740;9.106;2023-02-28T06:34:27;-2.40;99.90
4487;DHT22;2256;48.740;9.106;2023-02-28T06:36:55;-2.40;99.90
4487;DHT22;2256;48.740;9.106;2023-02-28T06:39:22;-2.30;99.90
4487;DHT22;2256;48.740;9.106;2023-02-28T06:41:51;-2.30;99.90
4487;DHT22;2256;48.740;9.106;2023-02-28T06:44:20;-2.30;99.90
4487;DHT22;2256;48.740;9.106;2023-02-28T06:46:52;-2.30;99.90
4487;DHT22;2256;48.740;9.106;2023-02-28T06:49:20;-2.40;99.90
4487;DHT22;2256;48.740;9.106;2023-02-28T06:51:48;-2.30;99.90
4487;DHT22;2256;48.740;9.106;2023-02-28T06:54:15;-2.30;99.90
4487;DHT22;2256;48.740;9.106;2023-02-28T06:56:42;-2.40;99.90
4487;DHT22;2256;48.740;9.106;2023-02-28T06:59:08;-2.30;99.90
4487;DHT22;2256;48.740;9.106;2023-02-28T07:01:38;-2.20;99.90
4487;DHT22;2256;48.740;9.106;2023-02-28T07:04:06;-2.20;99.90
4487;DHT22;2256;48.740;9.106;2023-02-28T07:06:33;-2.20;99.90
4487;DHT22;2256;48.740;9.106;2023-02-28T07:09:01;-2.20;99.90
4487;DHT22;2256;48.740;9.106;2023-02-28T07:11:30;-2.10;99.90
4487;DHT22;2256;48.740;9.106;2023-02-28T07:13:57;-2.10;99.90
4487;DHT22;2256;48.740;9.106;2023-02-28T07:16:24;-2.10;99.90
4487;DHT22;2256;48.740;9.106;2023-02-28T07:18:54;-2.00;99.90
4487;DHT22;2256;48.740;9.106;2023-02-28T07:21:21;-2.00;99.90
4487;DHT22;2256;48.740;9.106;2023-02-28T07:23:49;-2.00;99.90
4487;DHT22;2256;48.740;9.106;2023-02-28T07:26:18;-1.90;99.90
4487;DHT22;2256;48.740;9.106;2023-02-28T07:28:47;-2.00;99.90
4487;DHT22;2256;48.740;9.106;2023-02-28T07:31:15;-1.80;99.90
4487;DHT22;2256;48.740;9.106;2023-02-28T07:33:42;-1.80;99.90
4487;DHT22;2256;48.740;9.106;2023-02-28T07:36:12;-1.70;99.90
4487;DHT22;2256;48.740;9.106;2023-02-28T07:38:42;-1.70;99.90
4487;DHT22;2256;48.740;9.106;2023-02-28T07:41:09;-1.80;99.90
4487;DHT22;2256;48.740;9.106;2023-02-28T07:43:36;-1.70;99.90
4487;DHT22;2256;48.740;9.106;2023-02-28T07:46:04;-1.70;99.90
4487;DHT22;2256;48.740;9.106;2023-02-28T07:48:31;-1.80;99.90
4487;DHT22;2256;48.740;9.106;2023-02-28T07:50:59;-1.70;99.90
4487;DHT22;2256;48.740;9.106;2023-02-28T07:53:28;-1.70;99.90
4487;DHT22;2256;48.740;9.106;2023-02-28T07:55:55;-1.60;99.90
4487;DHT22;2256;48.740;9.106;2023-02-28T07:58:23;-1.60;99.90
4487;DHT22;2256;48.740;9.106;2023-02-28T08:00:50;-1.60;99.90
4487;DHT22;2256;48.740;9.106;2023-02-28T08:03:17;-1.60;99.90
4487;DHT22;2256;48.740;9.106;2023-02-28T08:05:44;-1.70;99.90
4487;DHT22;2256;48.740;9.106;2023-02-28T08:08:11;-1.70;99.90
4487;DHT22;2256;48.740;9.106;2023-02-28T08:10:40;-1.70;99.90
4487;DHT22;2256;48.740;9.106;2023-02-28T08:13:07;-1.60;99.90
4487;DHT22;2256;48.740;9.106;2023-02-28T08:15:34;-1.60;99.90
4487;DHT22;2256;48.740;9.106;2023-02-28T08:18:01;-1.50;99.90
4487;DHT22;2256;48.740;9.106;2023-02-28T08:20:28;-1.50;99.90
4487;DHT22;2256;48.740;9.106;2023-02-28T08:22:56;-1.40;99.90
4487;DHT22;2256;48.740;9.106;2023-02-28T08:25:23;-1.40;99.90
4487;DHT22;2256;48.740;9.106;2023-02-28T08:27:52;-1.50;99.90
4487;DHT22;2256;48.740;9.106;2023-02-28T08:30:20;-1.60;99.90
4487;DHT22;2256;48.740;9.106;2023-02-28T08:32:46;-1.60;99.90
4487;DHT22;2256;48.740;9.106;2023-02-28T08:35:13;-1.60;99.90
4487;DHT22;2256;48.740;9.106;2023-02-28T08:37:41;-1.50;99.90
4487;DHT22;2256;48.740;9.106;2023-02-28T08:40:09;-1.40;99.90
4487;DHT22;2256;48.740;9.106;2023-02-28T08:42:38;-1.20;99.90
4487;DHT22;2256;48.740;9.106;2023-02-28T08:45:08;-1.30;99.90
4487;DHT22;2256;48.740;9.106;2023-02-28T08:47:35;-1.50;99.90
4487;DHT22;2256;48.740;9.106;2023-02-28T08:50:03;-1.40;99.90
4487;DHT22;2256;48.740;9.106;2023-02-28T08:52:30;-1.30;99.90
4487;DHT22;2256;48.740;9.106;2023-02-28T08:54:57;-1.40;99.90
4487;DHT22;2256;48.740;9.106;2023-02-28T08:57:25;-1.40;99.90
4487;DHT22;2256;48.740;9.106;2023-02-28T08:59:53;-1.30;99.90
4487;DHT22;2256;48.740;9.106;2023-02-28T09:02:21;-1.30;99.90
4487;DHT22;2256;48.740;9.106;2023-02-28T09:04:48;-1.20;99.90
4487;DHT22;2256;48.740;9.106;2023-02-28T09:07:15;-1.30;99.90
4487;DHT22;2256;48.740;9.106;2023-02-28T09:09:42;-1.30;99.90
4487;DHT22;2256;48.740;9.106;2023-02-28T09:12:19;-1.20;99.90
4487;DHT22;2256;48.740;9.106;2023-02-28T09:14:46;-1.40;99.90
4487;DHT22;2256;48.740;9.106;2023-02-28T09:17:12;-1.30;99.90
4487;DHT22;2256;48.740;9.106;2023-02-28T09:19:40;-1.20;99.90
4487;DHT22;2256;48.740;9.106;2023-02-28T09:22:08;-1.10;99.90
4487;DHT22;2256;48.740;9.106;2023-02-28T09:24:36;-1.00;99.90
4487;DHT22;2256;48.740;9.106;2023-02-28T09:27:04;-0.90;99.90
4487;DHT22;2256;48.740;9.106;2023-02-28T09:29:31;-1.00;99.90
4487;DHT22;2256;48.740;9.106;2023-02-28T09:31:58;-0.90;99.90
4487;DHT22;2256;48.740;9.106;2023-02-28T09:34:25;-0.90;99.90
4487;DHT22;2256;48.740;9.106;2023-02-28T09:36:53;-0.90;99.90
4487;DHT22;2256;48.740;9.106;2023-02-28T09:39:20;-0.80;99.90
4487;DHT22;2256;48.740;9.106;2023-02-28T09:41:49;-0.80;99.90
4487;DHT22;2256;48.740;9.106;2023-02-28T09:44:22;-0.80;99.90
4487;DHT22;2256;48.740;9.106;2023-02-28T09:46:52;-0.60;99.90
4487;DHT22;2256;48.740;9.106;2023-02-28T09:49:24;-0.50;99.90
4487;DHT22;2256;48.740;9.106;2023-02-28T09:51:56;-0.40;99.90
4487;DHT22;2256;48.740;9.106;2023-02-28T09:54:26;-0.50;99.90
4487;DHT22;2256;48.740;9.106;2023-02-28T09:56:57;-0.40;99.90
4487;DHT22;2256;48.740;9.106;2023-02-28T09:59:44;-0.40;99.90
4487;DHT22;2256;48.740;9.106;2023-02-28T10:02:38;-0.30;99.90
4487;DHT22;2256;48.740;9.106;2023-02-28T10:05:10;-0.20;99.90
4487;DHT22;2256;48.740;9.106;2023-02-28T10:07:50;-0.30;99.90
4487;DHT22;2256;48.740;9.106;2023-02-28T10:10:24;-0.30;99.90
4487;DHT22;2256;48.740;9.106;2023-02-28T10:12:56;-0.30;99.90
4487;DHT22;2256;48.740;9.106;2023-02-28T10:15:27;-0.30;99.90
4487;DHT22;2256;48.740;9.106;2023-02-28T10:17:58;-0.20;99.90
4487;DHT22;2256;48.740;9.106;2023-02-28T10:20:26;-0.20;99.90
4487;DHT22;2256;48.740;9.106;2023-02-28T10:23:02;-0.10;99.90
4487;DHT22;2256;48.740;9.106;2023-02-28T10:25:34;0.10;99.90
4487;DHT22;2256;48.740;9.106;2023-02-28T10:28:09;0.20;99.90
4487;DHT22;2256;48.740;9.106;2023-02-28T10:30:39;0.20;99.90
4487;DHT22;2256;48.740;9.106;2023-02-28T10:33:13;0.20;99.90
4487;DHT22;2256;48.740;9.106;2023-02-28T10:35:43;0.30;99.90
4487;DHT22;2256;48.740;9.106;2023-02-28T10:38:16;0.20;99.90
4487;DHT22;2256;48.740;9.106;2023-02-28T10:40:43;0.20;99.90
4487;DHT22;2256;48.740;9.106;2023-02-28T10:43:19;0.30;99.80
4487;DHT22;2256;48.740;9.106;2023-02-28T10:46:01;0.40;99.90
4487;DHT22;2256;48.740;9.106;2023-02-28T10:48:37;0.40;99.90
4487;DHT22;2256;48.740;9.106;2023-02-28T10:51:05;0.50;99.90
4487;DHT22;2256;48.740;9.106;2023-02-28T10:53:45;0.40;99.90
4487;DHT22;2256;48.740;9.106;2023-02-28T10:56:16;0.50;99.60
4487;DHT22;2256;48.740;9.106;2023-02-28T10:58:51;0.70;99.50
4487;DHT22;2256;48.740;9.106;2023-02-28T11:01:20;0.70;99.40
4487;DHT22;2256;48.740;9.106;2023-02-28T11:03:48;0.80;99.30
4487;DHT22;2256;48.740;9.106;2023-02-28T11:06:17;0.90;99.20
4487;DHT22;2256;48.740;9.106;2023-02-28T11:08:49;0.90;99.20
4487;DHT22;2256;48.740;9.106;2023-02-28T11:11:17;0.80;99.00
4487;DHT22;2256;48.740;9.106;2023-02-28T11:13:46;1.00;99.20
4487;DHT22;2256;48.740;9.106;2023-02-28T11:16:14;1.10;98.90
4487;DHT22;2256;48.740;9.106;2023-02-28T11:18:46;1.30;98.70
4487;DHT22;2256;48.740;9.106;2023-02-28T11:21:21;1.50;98.40
4487;DHT22;2256;48.740;9.106;2023-02-28T11:23:52;1.80;97.80
4487;DHT22;2256;48.740;9.106;2023-02-28T11:26:38;1.70;97.60
4487;DHT22;2256;48.740;9.106;2023-02-28T11:29:19;1.50;98.00
4487;DHT22;2256;48.740;9.106;2023-02-28T11:32:12;1.20;98.10
4487;DHT22;2256;48.740;9.106;2023-02-28T11:34:40;1.00;98.30
4487;DHT22;2256;48.740;9.106;2023-02-28T11:37:12;0.90;98.70
4487;DHT22;2256;48.740;9.106;2023-02-28T11:39:41;1.00;98.50
4487;DHT22;2256;48.740;9.106;2023-02-28T11:42:38;1.10;98.40
4487;DHT22;2256;48.740;9.106;2023-02-28T11:45:23;1.30;98.40
4487;DHT22;2256;48.740;9.106;2023-02-28T11:48:00;1.40;98.10
4487;DHT22;2256;48.740;9.106;2023-02-28T11:50:53;1.40;98.20
4487;DHT22;2256;48.740;9.106;2023-02-28T11:53:35;1.60;98.10
4487;DHT22;2256;48.740;9.106;2023-02-28T11:56:12;1.70;97.80
4487;DHT22;2256;48.740;9.106;2023-02-28T11:58:51;1.90;97.80
4487;DHT22;2256;48.740;9.106;2023-02-28T12:01:29;2.20;97.40
4487;DHT22;2256;48.740;9.106;2023-02-28T12:04:05;2.50;97.10
4487;DHT22;2256;48.740;9.106;2023-02-28T12:06:42;2.70;96.50
4487;DHT22;2256;48.740;9.106;2023-02-28T12:09:20;2.70;96.70
4487;DHT22;2256;48.740;9.106;2023-02-28T12:11:56;2.90;96.20
4487;DHT22;2256;48.740;9.106;2023-02-28T12:14:48;2.90;96.30
4487;DHT22;2256;48.740;9.106;2023-02-28T12:17:26;2.90;96.00
4487;DHT22;2256;48.740;9.106;2023-02-28T12:20:04;2.90;95.90
4487;DHT22;2256;48.740;9.106;2023-02-28T12:22:40;2.80;96.00
4487;DHT22;2256;48.740;9.106;2023-02-28T12:25:36;2.90;96.10
4487;DHT22;2256;48.740;9.106;2023-02-28T12:28:09;2.90;95.90
4487;DHT22;2256;48.740;9.106;2023-02-28T12:30:43;2.80;95.80
4487;DHT22;2256;48.740;9.106;2023-02-28T12:33:16;2.70;96.20
4487;DHT22;2256;48.740;9.106;2023-02-28T12:35:49;2.60;96.00
4487;DHT22;2256;48.740;9.106;2023-02-28T12:38:19;2.40;95.80
4487;DHT22;2256;48.740;9.106;2023-02-28T12:40:50;2.40;96.20
4487;DHT22;2256;48.740;9.106;2023-02-28T12:43:22;2.40;96.20
4487;DHT22;2256;48.740;9.106;2023-02-28T12:45:55;2.50;96.40
4487;DHT22;2256;48.740;9.106;2023-02-28T12:48:27;2.70;95.70
4487;DHT22;2256;48.740;9.106;2023-02-28T12:50:56;2.80;95.60
4487;DHT22;2256;48.740;9.106;2023-02-28T12:53:27;2.90;95.40
4487;DHT22;2256;48.740;9.106;2023-02-28T12:56:07;2.90;95.40
4487;DHT22;2256;48.740;9.106;2023-02-28T12:58:40;3.10;95.60
4487;DHT22;2256;48.740;9.106;2023-02-28T13:01:36;3.00;95.70
4487;DHT22;2256;48.740;9.106;2023-02-28T13:04:43;2.90;95.40
4487;DHT22;2256;48.740;9.106;2023-02-28T13:07:31;2.70;95.40
4487;DHT22;2256;48.740;9.106;2023-02-28T13:10:04;2.70;95.70
4487;DHT22;2256;48.740;9.106;2023-02-28T13:12:33;2.90;95.70
4487;DHT22;2256;48.740;9.106;2023-02-28T13:15:06;3.00;95.30
4487;DHT22;2256;48.740;9.106;2023-02-28T13:17:38;3.20;95.20
4487;DHT22;2256;48.740;9.106;2023-02-28T13:20:15;3.30;94.80
4487;DHT22;2256;48.740;9.106;2023-02-28T13:22:44;3.40;95.00
4487;DHT22;2256;48.740;9.106;2023-02-28T13:25:50;3.30;94.80
4487;DHT22;2256;48.740;9.106;2023-02-28T13:34:35;3.70;94.60
4487;DHT22;2256;48.740;9.106;2023-02-28T13:37:32;3.60;94.50
4487;DHT22;2256;48.740;9.106;2023-02-28T13:40:24;3.70;94.60
4487;DHT22;2256;48.740;9.106;2023-02-28T13:42:52;3.60;94.50
4487;DHT22;2256;48.740;9.106;2023-02-28T13:45:25;3.80;94.70
4487;DHT22;2256;48.740;9.106;2023-02-28T13:47:54;3.90;94.10
4487;DHT22;2256;48.740;9.106;2023-02-28T13:50:33;3.90;93.80
4487;DHT22;2256;48.740;9.106;2023-02-28T13:56:10;3.80;94.30
4487;DHT22;2256;48.740;9.106;2023-02-28T13:58:52;3.80;94.40
4487;DHT22;2256;48.740;9.106;2023-02-28T14:01:42;4.00;94.20
4487;DHT22;2256;48.740;9.106;2023-02-28T14:04:28;3.80;93.90
4487;DHT22;2256;48.740;9.106;2023-02-28T14:07:02;3.70;94.20
4487;DHT22;2256;48.740;9.106;2023-02-28T14:09:32;3.80;94.00
4487;DHT22;2256;48.740;9.106;2023-02-28T14:15:01;3.60;94.10
4487;DHT22;2256;48.740;9.106;2023-02-28T14:17:28;3.50;94.30
4487;DHT22;2256;48.740;9.106;2023-02-28T14:19:57;3.70;94.30
4487;DHT22;2256;48.740;9.106;2023-02-28T14:22:46;3.90;93.90
4487;DHT22;2256;48.740;9.106;2023-02-28T14:25:23;4.10;93.70
4487;DHT22;2256;48.740;9.106;2023-02-28T14:28:02;4.00;93.60
4487;DHT22;2256;48.740;9.106;2023-02-28T14:31:07;4.00;93.40
4487;DHT22;2256;48.740;9.106;2023-02-28T14:33:57;4.10;93.70
4487;DHT22;2256;48.740;9.106;2023-02-28T14:36:31;4.10;93.60
4487;DHT22;2256;48.740;9.106;2023-02-28T14:39:04;4.10;93.60
4487;DHT22;2256;48.740;9.106;2023-02-28T14:41:33;4.00;93.50
4487;DHT22;2256;48.740;9.106;2023-02-28T14:44:12;4.00;93.40
4487;DHT22;2256;48.740;9.106;2023-02-28T14:46:41;4.00;93.40
4487;DHT22;2256;48.740;9.106;2023-02-28T14:49:15;4.10;93.40
4487;DHT22;2256;48.740;9.106;2023-02-28T14:51:42;4.10;93.30
4487;DHT22;2256;48.740;9.106;2023-02-28T14:54:15;4.30;93.30
4487;DHT22;2256;48.740;9.106;2023-02-28T14:56:43;4.30;93.20
4487;DHT22;2256;48.740;9.106;2023-02-28T14:59:25;4.20;93.20
4487;DHT22;2256;48.740;9.106;2023-02-28T15:04:58;4.10;93.40
4487;DHT22;2256;48.740;9.106;2023-02-28T15:07:25;3.90;93.40
4487;DHT22;2256;48.740;9.106;2023-02-28T15:10:10;4.00;93.40
4487;DHT22;2256;48.740;9.106;2023-02-28T15:12:39;4.10;93.30
4487;DHT22;2256;48.740;9.106;2023-02-28T15:15:14;4.10;93.60
4487;DHT22;2256;48.740;9.106;2023-02-28T15:17:43;4.20;93.20
4487;DHT22;2256;48.740;9.106;2023-02-28T15:20:13;4.10;93.30
4487;DHT22;2256;48.740;9.106;2023-02-28T15:22:40;4.10;93.30
4487;DHT22;2256;48.740;9.106;2023-02-28T15:25:10;4.10;93.30
4487;DHT22;2256;48.740;9.106;2023-02-28T15:27:44;4.10;93.30
4487;DHT22;2256;48.740;9.106;2023-02-28T15:30:16;4.10;93.50
4487;DHT22;2256;48.740;9.106;2023-02-28T15:32:44;4.10;93.20
4487;DHT22;2256;48.740;9.106;2023-02-28T15:35:19;4.10;93.30
4487;DHT22;2256;48.740;9.106;2023-02-28T15:37:50;4.10;93.50
4487;DHT22;2256;48.740;9.106;2023-02-28T15:40:23;4.10;93.50
4487;DHT22;2256;48.740;9.106;2023-02-28T15:43:00;4.00;93.40
4487;DHT22;2256;48.740;9.106;2023-02-28T15:45:34;3.90;93.60
4487;DHT22;2256;48.740;9.106;2023-02-28T15:48:04;4.00;93.70
4487;DHT22;2256;48.740;9.106;2023-02-28T15:50:31;4.00;93.70
4487;DHT22;2256;48.740;9.106;2023-02-28T15:53:00;4.10;93.50
4487;DHT22;2256;48.740;9.106;2023-02-28T15:55:30;4.10;93.50
4487;DHT22;2256;48.740;9.106;2023-02-28T15:58:00;4.00;93.50
4487;DHT22;2256;48.740;9.106;2023-02-28T16:00:29;4.00;93.70
4487;DHT22;2256;48.740;9.106;2023-02-28T16:02:58;3.90;93.70
4487;DHT22;2256;48.740;9.106;2023-02-28T16:05:26;3.90;93.70
4487;DHT22;2256;48.740;9.106;2023-02-28T16:07:56;3.90;93.90
4487;DHT22;2256;48.740;9.106;2023-02-28T16:10:25;3.70;94.10
4487;DHT22;2256;48.740;9.106;2023-02-28T16:12:55;3.50;94.30
4487;DHT22;2256;48.740;9.106;2023-02-28T16:15:24;3.60;94.50
4487;DHT22;2256;48.740;9.106;2023-02-28T16:17:52;3.70;94.40
4487;DHT22;2256;48.740;9.106;2023-02-28T16:20:21;3.50;94.50
4487;DHT22;2256;48.740;9.106;2023-02-28T16:22:48;3.60;94.50
4487;DHT22;2256;48.740;9.106;2023-02-28T16:25:16;3.50;94.50
4487;DHT22;2256;48.740;9.106;2023-02-28T16:27:45;3.40;94.60
4487;DHT22;2256;48.740;9.106;2023-02-28T16:30:20;3.20;94.90
4487;DHT22;2256;48.740;9.106;2023-02-28T16:32:47;3.10;94.90
4487;DHT22;2256;48.740;9.106;2023-02-28T16:35:15;3.30;94.90
4487;DHT22;2256;48.740;9.106;2023-02-28T16:37:42;3.20;95.00
4487;DHT22;2256;48.740;9.106;2023-02-28T16:40:14;3.10;95.10
4487;DHT22;2256;48.740;9.106;2023-02-28T16:42:42;3.00;95.20
4487;DHT22;2256;48.740;9.106;2023-02-28T16:45:17;3.00;95.50
4487;DHT22;2256;48.740;9.106;2023-02-28T16:47:46;3.10;95.30
4487;DHT22;2256;48.740;9.106;2023-02-28T16:50:15;3.10;95.30
4487;DHT22;2256;48.740;9.106;2023-02-28T16:52:42;3.00;95.30
4487;DHT22;2256;48.740;9.106;2023-02-28T16:55:10;2.80;95.50
4487;DHT22;2256;48.740;9.106;2023-02-28T16:57:38;2.80;95.50